Time;durP1;ratioP1;P1;durP2;ratioP2;P2;SDS_P1;SDS_P2;PMS_P1;PMS_P2;Temp;Humidity;BMP_temperature;BMP_pressure;BME280_temperature;BME280_humidity;BME280_pressure;Samples;Min_cycle;Max_cycle;Signal;HPM_P1;HPM_P2
2023/12/27 00:00:20;;;;;;;9.50;5.15;;;;;;;10.22;100.00;99359.25;6262800;22;20016;-94
2023/12/27 00:02:46;;;;;;;9.00;5.75;;;;;;;10.28;100.00;99377.78;6262039;22;20027;-94
2023/12/27 00:05:15;;;;;;;11.95;6.57;;;;;;;10.72;100.00;99429.34;6261602;22;20406;-94
2023/12/27 00:07:41;;;;;;;11.85;7.32;;;;;;;10.30;100.00;99353.81;6263370;22;20024;-94
2023/12/27 00:10:11;;;;;;;12.70;7.47;;;;;;;10.68;100.00;99420.53;6263145;22;20023;-94
2023/12/27 00:12:39;;;;;;;16.50;9.20;;;;;;;10.34;100.00;99356.41;6263129;22;20054;-95
2023/12/27 00:15:06;;;;;;;21.20;10.02;;;;;;;10.29;100.00;99334.34;6263141;22;20069;-95
2023/12/27 00:17:38;;;;;;;22.63;9.75;;;;;;;10.24;100.00;99323.78;6262977;22;20019;-95
2023/12/27 00:20:05;;;;;;;18.30;9.00;;;;;;;10.45;100.00;99361.53;6262689;22;20050;-94
2023/12/27 00:22:48;;;;;;;15.93;9.95;;;;;;;10.35;100.00;99334.25;6262888;22;20019;-94
2023/12/27 00:25:16;;;;;;;18.23;9.88;;;;;;;10.37;100.00;99350.19;6262069;22;20035;-96
2023/12/27 00:27:49;;;;;;;21.40;10.00;;;;;;;10.68;100.00;99403.72;6289780;22;20019;-95
2023/12/27 00:30:18;;;;;;;17.80;8.48;;;;;;;10.24;100.00;99328.22;6257020;23;20043;-95
2023/12/27 00:32:44;;;;;;;14.48;8.20;;;;;;;10.25;100.00;99322.84;6257314;23;20020;-94
2023/12/27 00:35:11;;;;;;;20.42;8.82;;;;;;;10.63;100.00;99393.16;6256226;23;20103;-94
2023/12/27 00:37:44;;;;;;;18.38;9.57;;;;;;;10.01;100.00;99339.22;6256286;23;20024;-95
2023/12/27 00:40:15;;;;;;;21.65;11.15;;;;;;;9.86;100.00;99350.94;6255856;23;20020;-95
2023/12/27 00:42:48;;;;;;;15.57;10.13;;;;;;;9.98;100.00;99344.59;6256819;23;20077;-95
2023/12/27 00:45:17;;;;;;;17.63;10.80;;;;;;;10.31;100.00;99400.78;6256746;23;20016;-94
2023/12/27 00:47:45;;;;;;;18.13;9.38;;;;;;;9.89;100.00;99356.22;6256350;23;20581;-95
2023/12/27 00:50:17;;;;;;;20.33;10.30;;;;;;;9.90;100.00;99351.78;6256365;23;20051;-96
2023/12/27 00:52:43;;;;;;;21.23;9.38;;;;;;;10.03;100.00;99359.53;6257187;23;20043;-95
2023/12/27 00:55:11;;;;;;;17.92;8.50;;;;;;;10.02;100.00;99356.91;6257315;23;20016;-95
2023/12/27 00:57:40;;;;;;;17.63;9.38;;;;;;;10.05;100.00;99367.50;6256233;23;20022;-95
2023/12/27 01:00:07;;;;;;;15.70;9.10;;;;;;;10.11;100.00;99369.19;6255481;23;20000;-96
2023/12/27 01:02:36;;;;;;;16.35;9.70;;;;;;;10.17;100.00;99374.38;6256928;23;20111;-94
2023/12/27 01:05:03;;;;;;;20.85;10.23;;;;;;;10.14;100.00;99375.31;6256701;23;20413;-96
2023/12/27 01:07:30;;;;;;;15.30;8.00;;;;;;;10.45;100.00;99442.22;6257569;23;20016;-94
2023/12/27 01:09:57;;;;;;;16.02;7.93;;;;;;;10.51;100.00;99435.91;6257477;23;20106;-94
2023/12/27 01:12:25;;;;;;;17.40;8.70;;;;;;;10.32;100.00;99408.72;6258073;22;20020;-95
2023/12/27 01:14:51;;;;;;;15.77;8.40;;;;;;;10.12;100.00;99379.78;6256537;23;20323;-94
2023/12/27 01:17:17;;;;;;;14.75;8.40;;;;;;;10.15;100.00;99445.28;6256575;23;20346;-95
2023/12/27 01:19:47;;;;;;;12.88;7.28;;;;;;;10.00;100.00;99415.38;6256542;23;20051;-94
2023/12/27 01:22:13;;;;;;;13.75;6.35;;;;;;;10.36;100.00;99447.66;6256350;23;20078;-95
2023/12/27 01:24:46;;;;;;;13.15;7.50;;;;;;;10.12;100.00;99394.84;6256060;23;20020;-94
2023/12/27 01:27:15;;;;;;;13.40;7.55;;;;;;;10.12;100.00;99397.50;6256918;23;20461;-95
2023/12/27 01:29:50;;;;;;;20.05;8.20;;;;;;;10.54;100.00;99461.56;6261214;22;20019;-95
2023/12/27 01:32:19;;;;;;;11.73;6.63;;;;;;;10.48;100.00;99447.47;6262173;22;20015;-96
2023/12/27 01:34:47;;;;;;;13.00;6.85;;;;;;;10.08;100.00;99378.97;6263384;22;20083;-95
2023/12/27 01:37:15;;;;;;;13.23;8.05;;;;;;;10.17;100.00;99385.91;6262237;22;20024;-92
2023/12/27 01:39:43;;;;;;;12.75;7.65;;;;;;;10.39;100.00;99426.34;6261783;22;20015;-94
2023/12/27 01:42:11;;;;;;;16.83;7.88;;;;;;;10.33;100.00;99406.97;6261705;22;20438;-95
2023/12/27 01:44:40;;;;;;;14.85;7.72;;;;;;;10.23;100.00;99399.06;6262110;22;20015;-96
2023/12/27 01:47:10;;;;;;;14.48;8.40;;;;;;;10.17;100.00;99399.19;6261014;22;20041;-95
2023/12/27 01:49:39;;;;;;;19.70;10.18;;;;;;;10.28;100.00;99396.38;6260037;22;20020;-95
2023/12/27 01:52:14;;;;;;;17.88;10.65;;;;;;;10.44;100.00;99436.91;6261132;22;20035;-94
2023/12/27 01:54:41;;;;;;;20.63;10.60;;;;;;;10.51;100.00;99454.50;6261328;22;20373;-95
2023/12/27 01:57:08;;;;;;;19.58;11.30;;;;;;;10.29;100.00;99422.06;6261844;22;20015;-95
2023/12/27 01:59:37;;;;;;;20.95;10.63;;;;;;;10.47;100.00;99455.47;6260915;22;20507;-95
2023/12/27 02:02:04;;;;;;;21.67;9.48;;;;;;;10.18;100.00;99378.81;6262223;22;20019;-95
2023/12/27 02:04:30;;;;;;;19.90;9.25;;;;;;;10.22;100.00;99378.72;6260585;22;20018;-94
2023/12/27 02:07:02;;;;;;;17.63;9.63;;;;;;;10.27;100.00;99391.94;6261483;22;20047;-95
2023/12/27 02:09:41;;;;;;;17.08;9.85;;;;;;;10.15;100.00;99401.00;6262603;22;20023;-95
2023/12/27 02:12:22;;;;;;;16.20;9.65;;;;;;;10.21;100.00;99405.31;6261686;22;20111;-94
2023/12/27 02:14:55;;;;;;;15.15;9.27;;;;;;;10.10;100.00;99408.16;6261629;22;20442;-95
2023/12/27 02:17:25;;;;;;;16.08;9.63;;;;;;;10.13;100.00;99426.72;6261634;22;20073;-95
2023/12/27 02:19:53;;;;;;;18.42;10.50;;;;;;;10.45;100.00;99463.50;6287140;22;20446;-94
2023/12/27 02:22:23;;;;;;;22.38;11.90;;;;;;;10.50;100.00;99479.38;6261566;22;20074;-95
2023/12/27 02:24:54;;;;;;;;;;;;;;;10.48;100.00;99482.03;6262684;22;20019;-95
2023/12/27 02:27:20;;;;;;;20.63;11.70;;;;;;;9.92;100.00;99397.81;6261601;22;19938;-94
2023/12/27 02:29:49;;;;;;;21.45;11.25;;;;;;;9.82;100.00;99394.38;6260848;22;20027;-94
2023/12/27 02:32:18;;;;;;;18.85;11.10;;;;;;;10.47;100.00;99484.72;6260981;22;20015;-95
2023/12/27 02:34:45;;;;;;;22.70;12.65;;;;;;;9.86;100.00;99399.63;6260868;22;20024;-95
2023/12/27 02:37:14;;;;;;;23.45;13.40;;;;;;;9.89;100.00;99401.38;6261968;22;20019;-95
2023/12/27 02:39:43;;;;;;;25.48;13.98;;;;;;;9.80;100.00;99406.81;6261501;22;20019;-95
2023/12/27 02:42:23;;;;;;;26.40;13.88;;;;;;;9.97;100.00;99423.38;6260323;22;20027;-95
2023/12/27 02:44:49;;;;;;;20.90;12.65;;;;;;;9.91;100.00;99386.31;6260639;22;20020;-94
2023/12/27 02:47:17;;;;;;;24.02;14.20;;;;;;;9.59;100.00;99454.00;6260398;22;20055;-94
2023/12/27 02:49:46;;;;;;;23.55;14.25;;;;;;;9.78;100.00;99472.34;6261417;22;20019;-95
2023/12/27 02:52:16;;;;;;;23.23;14.05;;;;;;;9.43;100.00;99397.56;6262096;22;20019;-94
2023/12/27 02:54:48;;;;;;;25.35;13.93;;;;;;;9.59;100.00;99395.59;6261497;22;20043;-95
2023/12/27 02:57:17;;;;;;;26.80;13.63;;;;;;;9.71;100.00;99398.97;6262141;22;20023;-95
2023/12/27 02:59:44;;;;;;;27.92;13.52;;;;;;;10.00;100.00;99444.63;6261333;22;20342;-96
2023/12/27 03:02:10;;;;;;;23.90;13.15;;;;;;;10.11;100.00;99446.25;6261446;22;20346;-95
2023/12/27 03:04:39;;;;;;;24.35;13.98;;;;;;;9.86;100.00;99401.41;6261501;22;20026;-95
2023/12/27 03:07:08;;;;;;;22.15;13.15;;;;;;;10.24;100.00;99461.13;6260586;22;20027;-94
2023/12/27 03:09:34;;;;;;;27.52;14.77;;;;;;;9.73;100.00;99442.31;6261559;22;20039;-95
2023/12/27 03:12:04;;;;;;;25.65;14.65;;;;;;;9.15;100.00;99398.75;6260159;22;20016;-95
2023/12/27 03:14:35;;;;;;;28.58;14.20;;;;;;;9.66;100.00;99470.72;6260943;22;20106;-93
2023/12/27 03:17:01;;;;;;;28.02;13.68;;;;;;;9.57;100.00;99412.44;6260762;22;20042;-94
2023/12/27 03:19:34;;;;;;;27.27;13.80;;;;;;;9.55;100.00;99404.47;6261589;22;20361;-94
2023/12/27 03:22:07;;;;;;;24.02;14.20;;;;;;;9.59;100.00;99408.84;6260431;22;20003;-96
2023/12/27 03:24:33;;;;;;;25.20;13.57;;;;;;;9.60;100.00;99418.56;6261018;22;20027;-95
2023/12/27 03:27:01;;;;;;;26.80;14.63;;;;;;;9.54;100.00;99429.28;6260402;22;20030;-94
2023/12/27 03:29:27;;;;;;;27.75;14.00;;;;;;;9.20;100.00;99411.09;6254658;23;20028;-95
2023/12/27 03:31:57;;;;;;;27.95;13.30;;;;;;;9.53;100.00;99424.00;6256210;23;20055;-95
2023/12/27 03:34:26;;;;;;;24.60;13.27;;;;;;;9.79;100.00;99443.13;6255220;23;20016;-95
2023/12/27 03:36:58;;;;;;;25.88;13.70;;;;;;;9.69;100.00;99411.38;6255040;23;20028;-94
2023/12/27 03:39:27;;;;;;;22.98;12.43;;;;;;;9.72;100.00;99401.59;6256665;23;20024;-94
2023/12/27 03:41:54;;;;;;;27.25;13.57;;;;;;;9.87;100.00;99419.13;6258469;23;20024;-95
2023/12/27 03:44:20;;;;;;;21.65;12.40;;;;;;;9.86;100.00;99415.56;6258724;23;20012;-94
2023/12/27 03:46:50;;;;;;;20.30;12.10;;;;;;;9.87;100.00;99427.09;6258495;23;20052;-94
2023/12/27 03:49:18;;;;;;;18.55;13.15;;;;;;;9.79;100.00;99415.69;6256637;22;20016;-95
2023/12/27 03:51:45;;;;;;;20.05;12.30;;;;;;;10.04;100.00;99466.69;6257075;23;20078;-95
2023/12/27 03:54:18;;;;;;;18.88;11.50;;;;;;;9.75;100.00;99421.94;6257963;23;20023;-95
2023/12/27 03:56:48;;;;;;;17.98;11.32;;;;;;;9.71;100.00;99412.25;6257486;23;20023;-95
2023/12/27 03:59:17;;;;;;;18.67;10.82;;;;;;;9.72;100.00;99414.88;6257444;23;20024;-95
2023/12/27 04:01:46;;;;;;;18.17;10.95;;;;;;;9.65;100.00;99418.53;6257411;23;20434;-94
2023/12/27 04:04:21;;;;;;;16.98;10.93;;;;;;;9.99;100.00;99442.84;6257464;23;20066;-95
2023/12/27 04:06:47;;;;;;;19.98;10.57;;;;;;;10.03;100.00;99471.13;6257717;23;20434;-94
2023/12/27 04:09:20;;;;;;;16.38;10.45;;;;;;;9.83;100.00;99455.47;6256461;23;20099;-94
2023/12/27 04:11:46;;;;;;;14.85;10.15;;;;;;;9.80;100.00;99433.38;6257226;23;20020;-94
2023/12/27 04:14:14;;;;;;;19.38;10.50;;;;;;;9.65;100.00;99416.75;6256173;23;20016;-93
2023/12/27 04:16:40;;;;;;;20.38;10.65;;;;;;;9.64;100.00;99409.66;6255968;23;20112;-95
2023/12/27 04:19:09;;;;;;;17.75;10.15;;;;;;;9.71;100.00;99415.78;6256579;23;20016;-93
2023/12/27 04:21:45;;;;;;;16.38;10.27;;;;;;;9.93;100.00;99444.72;6256984;23;20101;-93
2023/12/27 04:24:17;;;;;;;17.50;10.45;;;;;;;9.63;100.00;99415.03;6257084;22;20124;-95
2023/12/27 04:26:43;;;;;;;17.70;10.65;;;;;;;9.95;100.00;99475.66;6258363;23;20044;-95
2023/12/27 04:29:12;;;;;;;16.25;10.65;;;;;;;9.46;100.00;99400.16;6261282;22;20024;-96
2023/12/27 04:31:40;;;;;;;19.52;11.02;;;;;;;9.47;100.00;99411.66;6263713;22;20027;-95
2023/12/27 04:34:29;;;;;;;20.17;11.20;;;;;;;9.40;100.00;99413.50;6263517;22;20445;-93
2023/12/27 04:36:56;;;;;;;20.42;10.38;;;;;;;9.64;100.00;99445.97;6263779;22;20083;-95
2023/12/27 04:39:27;;;;;;;;;;;;;;;10.00;100.00;99512.81;6263750;22;20019;-95
2023/12/27 04:41:56;;;;;;;21.38;10.63;;;;;;;9.21;100.00;99415.50;6263539;22;19914;-95
2023/12/27 04:44:25;;;;;;;20.13;10.93;;;;;;;9.22;100.00;99427.88;6263091;22;20020;-94
2023/12/27 04:46:59;;;;;;;18.85;10.90;;;;;;;9.27;100.00;99427.81;6264277;22;20338;-94
2023/12/27 04:52:02;;;;;;;20.60;10.90;;;;;;;9.46;100.00;99436.47;6248413;22;20234;-94
2023/12/27 04:54:34;;;;;;;24.63;10.00;;;;;;;9.33;100.00;99433.06;6234845;23;20024;-93
2023/12/27 04:57:02;;;;;;;18.48;10.75;;;;;;;9.95;100.00;99527.94;6233590;23;20502;-96
2023/12/27 04:59:30;;;;;;;19.27;10.40;;;;;;;9.22;100.00;99441.16;6232789;23;20047;-96
2023/12/27 05:01:56;;;;;;;14.63;9.02;;;;;;;9.36;100.00;99429.50;6232023;23;20016;-94
2023/12/27 05:04:22;;;;;;;16.65;8.73;;;;;;;9.53;100.00;99458.50;6231838;23;20020;-94
2023/12/27 05:06:51;;;;;;;16.35;9.43;;;;;;;9.42;100.00;99438.25;6232173;23;20027;-95
2023/12/27 05:09:20;;;;;;;19.10;9.15;;;;;;;9.51;100.00;99461.16;6231032;23;20031;-94
2023/12/27 05:11:49;;;;;;;12.55;8.48;;;;;;;9.71;100.00;99483.94;6231918;23;20023;-95
2023/12/27 05:14:19;;;;;;;15.98;8.18;;;;;;;9.96;100.00;99540.34;6257477;23;20070;-94
2023/12/27 05:16:46;;;;;;;14.40;8.80;;;;;;;9.52;100.00;99472.66;6257708;23;20031;-94
2023/12/27 05:19:15;;;;;;;16.33;9.40;;;;;;;9.64;100.00;99475.19;6232606;23;20016;-95
2023/12/27 05:21:44;;;;;;;16.58;9.15;;;;;;;9.66;100.00;99466.28;6232085;23;20020;-95
2023/12/27 05:24:10;;;;;;;16.83;9.35;;;;;;;9.75;100.00;99485.69;6231499;23;20030;-94
2023/12/27 05:26:40;;;;;;;20.15;8.57;;;;;;;9.75;100.00;99486.53;6230989;23;20016;-94
2023/12/27 05:29:06;;;;;;;18.75;10.18;;;;;;;9.75;100.00;99481.25;6230338;23;20065;-94
2023/12/27 05:31:37;;;;;;;17.80;10.90;;;;;;;9.84;100.00;99490.88;6230603;23;20012;-94
2023/12/27 05:34:12;;;;;;;23.15;11.23;;;;;;;9.79;100.00;99480.31;6230104;23;20503;-94
2023/12/27 05:36:38;;;;;;;22.45;11.85;;;;;;;9.90;100.00;99490.78;6229403;23;20332;-95
2023/12/27 05:39:04;;;;;;;19.20;11.00;;;;;;;10.09;100.00;99520.66;6231459;23;20020;-94
2023/12/27 05:41:30;;;;;;;20.27;11.05;;;;;;;9.94;100.00;99495.19;6230671;23;20447;-94
2023/12/27 05:43:58;;;;;;;18.80;11.32;;;;;;;10.11;100.00;99528.63;6231335;23;20077;-95
2023/12/27 05:46:30;;;;;;;19.27;11.05;;;;;;;9.68;100.00;99484.00;6257605;23;20107;-94
2023/12/27 05:48:58;;;;;;;22.17;10.65;;;;;;;9.54;100.00;99481.50;6232037;23;20438;-94
2023/12/27 05:51:27;;;;;;;16.08;10.57;;;;;;;10.04;100.00;99547.31;6243090;22;20005;-94
2023/12/27 05:53:54;;;;;;;17.83;10.27;;;;;;;9.95;100.00;99533.25;6257403;23;20013;-95
2023/12/27 05:56:26;;;;;;;18.80;10.73;;;;;;;9.80;100.00;99483.84;6260092;22;20437;-94
2023/12/27 05:58:52;;;;;;;15.38;9.88;;;;;;;9.79;100.00;99490.06;6258297;23;20032;-96
2023/12/27 06:01:21;;;;;;;18.73;9.38;;;;;;;10.24;100.00;99570.09;6258852;23;20462;-95
2023/12/27 06:03:52;;;;;;;18.90;10.43;;;;;;;9.73;100.00;99495.44;6258723;23;20012;-95
2023/12/27 06:06:21;;;;;;;17.98;10.15;;;;;;;9.70;100.00;99499.00;6258284;23;20024;-94
2023/12/27 06:08:57;;;;;;;15.88;10.35;;;;;;;9.81;100.00;99522.78;6258927;23;20019;-94
2023/12/27 06:11:23;;;;;;;16.23;8.90;;;;;;;9.74;100.00;99506.06;6258042;23;20020;-95
2023/12/27 06:13:49;;;;;;;14.25;8.98;;;;;;;9.83;100.00;99507.72;6258689;23;20042;-94
2023/12/27 06:16:19;;;;;;;14.50;8.93;;;;;;;9.74;100.00;99523.78;6257045;23;20027;-94
2023/12/27 06:18:48;;;;;;;14.43;9.32;;;;;;;10.13;100.00;99599.47;6257980;23;20078;-92
2023/12/27 06:21:14;;;;;;;18.10;8.93;;;;;;;9.94;100.00;99569.56;6256968;23;20437;-95
2023/12/27 06:23:40;;;;;;;15.73;8.52;;;;;;;9.62;100.00;99509.72;6257973;23;20012;-94
2023/12/27 06:26:06;;;;;;;15.82;8.88;;;;;;;9.69;100.00;99518.47;6258443;23;20020;-94
2023/12/27 06:28:33;;;;;;;16.88;9.00;;;;;;;9.86;100.00;99556.34;6256344;23;20020;-94
2023/12/27 06:30:59;;;;;;;17.45;9.05;;;;;;;9.57;100.00;99540.75;6257018;23;20016;-95
2023/12/27 06:33:25;;;;;;;13.75;7.93;;;;;;;9.78;100.00;99581.25;6256511;23;20103;-93
2023/12/27 06:35:56;;;;;;;19.02;9.52;;;;;;;9.50;100.00;99538.16;6257158;23;20048;-94
2023/12/27 06:38:25;;;;;;;15.85;8.90;;;;;;;9.33;100.00;99544.53;6257528;23;20000;-94
2023/12/27 06:40:57;;;;;;;14.88;8.52;;;;;;;9.76;100.00;99602.53;6283511;22;20026;-95
2023/12/27 06:43:26;;;;;;;13.60;8.15;;;;;;;9.63;100.00;99561.94;6258915;23;20012;-92
2023/12/27 06:45:52;;;;;;;15.43;10.05;;;;;;;9.46;100.00;99538.22;6257102;23;20431;-96
2023/12/27 06:48:22;;;;;;;12.32;8.40;;;;;;;9.42;100.00;99530.31;6256901;23;20089;-95
2023/12/27 06:57:34;;;;;;;23.35;12.20;;;;;;;9.61;100.00;99546.94;6142781;23;20371;-95
2023/12/27 07:00:06;;;;;;;16.83;10.32;;;;;;;9.65;100.00;99546.88;6142938;23;20055;-95
2023/12/27 07:02:43;;;;;;;20.95;11.35;;;;;;;9.66;100.00;99545.97;6143172;23;20028;-95
2023/12/27 07:05:21;;;;;;;20.13;10.27;;;;;;;9.59;100.00;99538.97;6142474;23;20029;-94
2023/12/27 07:07:47;;;;;;;22.10;10.50;;;;;;;9.62;100.00;99557.50;6142486;23;20022;-95
2023/12/27 07:10:16;;;;;;;15.63;9.90;;;;;;;9.73;100.00;99560.06;6142536;23;20025;-95
2023/12/27 07:12:47;;;;;;;18.55;10.00;;;;;;;10.17;100.00;99633.09;6142102;23;20041;-96
2023/12/27 07:15:14;;;;;;;17.90;10.77;;;;;;;9.66;100.00;99555.72;6144135;23;20017;-95
2023/12/27 07:17:42;;;;;;;17.33;10.88;;;;;;;9.84;100.00;99575.88;6141880;23;20026;-94
2023/12/27 07:20:10;;;;;;;;;;;;;;;10.31;100.00;99656.88;6142005;23;20045;-96
2023/12/27 07:22:39;;;;;;;18.20;9.88;;;;;;;10.23;100.00;99642.75;6141407;23;19912;-93
2023/12/27 07:25:05;;;;;;;15.10;10.02;;;;;;;9.90;100.00;99575.81;6142146;23;20044;-94
2023/12/27 07:27:35;;;;;;;21.73;11.52;;;;;;;9.91;100.00;99576.69;6140300;23;20048;-94
2023/12/27 07:30:06;;;;;;;19.45;10.98;;;;;;;9.94;100.00;99572.22;6163428;23;20239;-94
2023/12/27 07:32:33;;;;;;;26.13;13.05;;;;;;;10.30;100.00;99636.53;6257015;23;20020;-94
2023/12/27 07:35:00;;;;;;;19.90;11.55;;;;;;;10.02;100.00;99588.09;6256871;23;20111;-96
2023/12/27 07:37:28;;;;;;;20.88;11.43;;;;;;;10.06;100.00;99588.03;6257773;23;20377;-95
2023/12/27 07:39:54;;;;;;;18.20;10.98;;;;;;;10.13;100.00;99598.56;6283529;22;20047;-93
2023/12/27 07:42:21;;;;;;;18.80;10.90;;;;;;;10.10;100.00;99591.50;6257852;23;20020;-96
2023/12/27 07:44:52;;;;;;;19.00;10.50;;;;;;;10.13;100.00;99603.88;6258482;23;20350;-96
2023/12/27 07:47:20;;;;;;;20.15;11.05;;;;;;;10.03;100.00;99588.06;6257064;23;20107;-93
2023/12/27 07:49:49;;;;;;;16.95;10.80;;;;;;;10.13;100.00;99609.19;6256308;23;20020;-94
2023/12/27 07:52:17;;;;;;;22.27;11.70;;;;;;;10.50;100.00;99670.84;6255952;23;20024;-94
2023/12/27 07:54:46;;;;;;;25.20;11.93;;;;;;;10.17;100.00;99608.25;6255728;23;20017;-95
2023/12/27 07:57:23;;;;;;;20.85;11.48;;;;;;;10.28;100.00;99641.81;6256971;23;20020;-94
2023/12/27 07:59:56;;;;;;;27.30;12.80;;;;;;;10.42;100.00;99639.00;6257470;23;20020;-96
2023/12/27 08:02:25;;;;;;;22.67;12.73;;;;;;;10.67;100.00;99673.28;6254516;23;20017;-94
2023/12/27 08:04:57;;;;;;;25.73;13.63;;;;;;;10.37;100.00;99618.72;6256103;23;20020;-94
2023/12/27 08:07:28;;;;;;;21.52;13.10;;;;;;;10.48;100.00;99632.75;6255033;23;20020;-95
2023/12/27 08:09:57;;;;;;;24.10;13.45;;;;;;;10.56;100.00;99637.94;6256283;23;20063;-94
2023/12/27 08:12:23;;;;;;;25.58;14.30;;;;;;;10.49;100.00;99623.84;6284396;22;20035;-94
2023/12/27 08:14:52;;;;;;;26.65;15.05;;;;;;;10.77;100.00;99650.97;6256942;23;20020;-93
2023/12/27 08:17:28;;;;;;;24.13;13.65;;;;;;;10.63;100.00;99635.19;6255893;23;20036;-96
2023/12/27 08:19:57;;;;;;;32.85;17.75;;;;;;;10.84;100.00;99687.25;6254696;23;20026;-94
2023/12/27 08:22:28;;;;;;;29.42;16.58;;;;;;;11.17;100.00;99724.03;6255782;23;20020;-96
2023/12/27 08:24:55;;;;;;;28.10;14.57;;;;;;;10.75;100.00;99652.75;6256479;23;20020;-95
2023/12/27 08:27:24;;;;;;;25.35;13.40;;;;;;;10.89;100.00;99665.88;6258768;23;20027;-96
2023/12/27 08:29:53;;;;;;;24.63;14.25;;;;;;;10.92;100.00;99655.19;6258018;23;20026;-94
2023/12/27 08:32:28;;;;;;;29.70;14.20;;;;;;;10.99;100.00;99661.31;6259790;23;20078;-95
2023/12/27 08:34:54;;;;;;;24.10;12.85;;;;;;;11.07;100.00;99678.91;6259823;23;20047;-95
2023/12/27 08:37:25;;;;;;;21.83;13.35;;;;;;;11.38;100.00;99718.41;6259842;22;20427;-95
2023/12/27 08:39:58;;;;;;;22.55;11.88;;;;;;;11.20;100.00;99682.28;6259973;23;20023;-96
2023/12/27 08:42:24;;;;;;;18.02;10.55;;;;;;;11.31;100.00;99693.63;6259561;23;20209;-96
2023/12/27 08:44:55;;;;;;;19.95;10.75;;;;;;;11.35;100.00;99681.16;6260753;23;20032;-94
2023/12/27 08:47:22;;;;;;;16.70;10.13;;;;;;;11.41;100.00;99686.41;6261103;23;20020;-96
2023/12/27 08:49:52;;;;;;;16.25;8.85;;;;;;;11.41;100.00;99680.22;6263392;22;20027;-96
2023/12/27 08:52:25;;;;;;;22.17;10.57;;;;;;;11.57;100.00;99697.69;6266903;23;20024;-96
2023/12/27 08:54:53;;;;;;;17.85;9.02;;;;;;;11.34;100.00;99689.19;6266610;23;20020;-96
2023/12/27 08:57:25;;;;;;;19.20;9.77;;;;;;;11.56;100.00;99724.34;6262288;23;20026;-96
2023/12/27 09:00:24;;;;;;;16.02;8.93;;;;;;;12.07;100.00;99799.94;6263064;23;20111;-96
2023/12/27 09:02:52;;;;;;;18.38;9.18;;;;;;;11.60;100.00;99750.03;6265055;23;20019;-94
2023/12/27 09:05:24;;;;;;;14.07;8.80;;;;;;;11.52;100.00;99707.53;6264824;22;20020;-96
2023/12/27 09:07:54;;;;;;;12.88;8.00;;;;;;;11.94;100.00;99800.19;6265939;23;20023;-96
2023/12/27 09:10:40;;;;;;;11.75;6.47;;;;;;;11.67;100.00;99747.25;6267040;22;20055;-96
2023/12/27 09:13:17;;;;;;;12.93;5.38;;;;;;;11.63;100.00;99729.56;6262949;23;20016;-95
2023/12/27 09:15:44;;;;;;;18.25;9.65;;;;;;;11.79;100.00;99753.28;6261123;23;20016;-95
2023/12/27 09:18:10;;;;;;;12.95;6.43;;;;;;;11.77;100.00;99733.78;6260910;23;20020;-96
2023/12/27 09:20:45;;;;;;;10.75;6.45;;;;;;;12.21;100.00;99785.47;6262924;23;20027;-96
2023/12/27 09:23:15;;;;;;;10.68;6.72;;;;;;;11.91;100.00;99732.69;6263844;23;20024;-95
2023/12/27 09:25:51;;;;;;;;;;;;;;;12.38;100.00;99815.41;6265486;23;20016;-96
2023/12/27 09:28:25;;;;;;;14.02;7.80;;;;;;;11.92;100.00;99733.56;6265706;23;19920;-96
2023/12/27 09:30:58;;;;;;;13.73;8.13;;;;;;;11.94;100.00;99722.88;6263999;23;20067;-95
2023/12/27 09:33:32;;;;;;;13.43;7.35;;;;;;;12.47;100.00;99807.25;6262901;23;20074;-96
2023/12/27 09:36:12;;;;;;;13.00;7.68;;;;;;;12.08;100.00;99713.72;6265593;23;20024;-96
2023/12/27 09:38:49;;;;;;;12.20;6.63;;;;;;;12.28;100.00;99718.69;6263569;23;20027;-95
2023/12/27 09:41:20;;;;;;;12.80;6.90;;;;;;;12.43;100.00;99738.88;6262399;23;20016;-93
2023/12/27 09:44:04;;;;;;;15.65;7.22;;;;;;;12.30;100.00;99713.34;6262115;23;20346;-95
2023/12/27 09:49:45;;;;;;;15.00;7.22;;;;;;;12.47;100.00;99724.56;6150727;23;20022;-94
2023/12/27 09:52:27;;;;;;;12.68;7.78;;;;;;;12.65;100.00;99752.66;6147533;23;20021;-94
2023/12/27 09:55:24;;;;;;;12.32;7.40;;;;;;;12.51;100.00;99717.34;6150019;23;20018;-96
2023/12/27 09:58:06;;;;;;;14.10;7.32;;;;;;;12.51;100.00;99718.25;6148132;23;20022;-95
2023/12/27 10:00:45;;;;;;;15.50;7.45;;;;;;;12.59;100.00;99723.44;6149024;23;20018;-95
2023/12/27 10:03:53;;;;;;;14.63;7.68;;;;;;;12.72;100.00;99745.41;6173274;23;20032;-95
2023/12/27 10:06:34;;;;;;;16.33;7.97;;;;;;;12.52;100.00;99714.66;6148526;23;20022;-96
2023/12/27 10:09:17;;;;;;;12.82;7.03;;;;;;;12.83;100.00;99711.38;6147250;23;20029;-95
2023/12/27 10:11:50;;;;;;;21.13;8.88;;;;;;;13.48;100.00;99795.47;6143805;23;20017;-96
2023/12/27 10:14:31;;;;;;;19.65;9.02;;;;;;;13.07;100.00;99712.63;6143009;23;20029;-96
2023/12/27 10:17:07;;;;;;;18.23;8.70;;;;;;;13.13;100.00;99704.47;6143567;23;20021;-96
2023/12/27 10:19:42;;;;;;;16.70;9.30;;;;;;;13.47;100.00;99737.59;6143515;23;20117;-96
2023/12/27 10:22:17;;;;;;;18.58;9.15;;;;;;;13.37;100.00;99695.97;6141183;23;20060;-96
2023/12/27 10:24:46;;;;;;;20.70;9.00;;;;;;;13.97;100.00;99773.78;6137604;23;20022;-96
2023/12/27 10:27:15;;;;;;;21.00;8.98;;;;;;;13.98;100.00;99780.00;6209160;23;20026;-95
2023/12/27 10:29:59;;;;;;;17.15;8.68;;;;;;;14.05;100.00;99770.94;6228363;23;20446;-96
2023/12/27 10:32:27;;;;;;;15.07;8.10;;;;;;;13.51;100.00;99685.81;6228673;23;20023;-95
2023/12/27 10:34:55;;;;;;;15.27;7.45;;;;;;;13.85;100.00;99757.19;6232613;23;20016;-95
2023/12/27 10:37:26;;;;;;;13.63;7.40;;;;;;;14.12;100.00;99785.91;6230935;23;20617;-96
2023/12/27 10:40:05;;;;;;;9.63;6.18;;;;;;;14.14;100.00;99760.00;6229860;23;20028;-96
2023/12/27 10:42:34;;;;;;;9.65;5.63;;;;;;;13.80;100.00;99697.59;6229333;23;20023;-94
2023/12/27 10:45:07;;;;;;;11.75;5.80;;;;;;;13.74;100.00;99701.28;6229827;23;20016;-96
2023/12/27 10:47:40;;;;;;;11.15;5.72;;;;;;;13.75;100.00;99705.75;6229014;23;20047;-96
2023/12/27 10:50:12;;;;;;;12.57;6.18;;;;;;;13.80;100.00;99708.31;6228344;23;20020;-95
2023/12/27 10:52:46;;;;;;;14.10;5.72;;;;;;;14.10;100.00;99736.94;6247591;23;20024;-96
2023/12/27 10:55:43;;;;;;;13.55;7.78;;;;;;;13.89;100.00;99694.69;6255463;23;20023;-96
2023/12/27 10:58:23;;;;;;;15.18;8.50;;;;;;;14.08;100.00;99698.63;6222905;23;20019;-96
2023/12/27 11:01:01;;;;;;;18.77;9.43;;;;;;;14.05;100.00;99682.69;6278689;22;20024;-96
2023/12/27 11:03:29;;;;;;;;;;;;;;;14.52;100.00;99765.25;6253617;23;20502;-95
2023/12/27 11:05:58;;;;;;;14.98;7.68;;;;;;;14.15;100.00;99691.31;6254362;23;19916;-96
2023/12/27 11:08:32;;;;;;;17.92;8.93;;;;;;;14.47;100.00;99733.25;6253135;23;20103;-96
2023/12/27 11:11:05;;;;;;;16.65;9.32;;;;;;;14.27;100.00;99684.75;6254178;23;20024;-96
2023/12/27 11:13:36;;;;;;;17.90;9.43;;;;;;;14.11;100.00;99677.16;6254042;23;20020;-95
2023/12/27 11:16:07;;;;;;;16.45;8.43;;;;;;;14.18;100.00;99675.19;6253420;23;20016;-96
2023/12/27 11:18:36;;;;;;;16.17;8.73;;;;;;;14.22;100.00;99681.34;6253221;23;20358;-95
2023/12/27 11:21:07;;;;;;;15.07;8.27;;;;;;;14.20;100.00;99683.16;6255509;23;20353;-96
2023/12/27 11:23:43;;;;;;;24.33;9.43;;;;;;;14.25;100.00;99708.91;6256688;23;20074;-96
2023/12/27 11:26:14;;;;;;;17.88;9.65;;;;;;;14.23;100.00;99710.72;6281280;22;20016;-95
2023/12/27 11:28:42;;;;;;;14.27;8.55;;;;;;;13.91;100.00;99660.78;6254819;23;20058;-96
2023/12/27 11:31:08;;;;;;;14.57;8.23;;;;;;;14.04;100.00;99662.19;6253793;23;20110;-96
2023/12/27 11:33:37;;;;;;;15.35;8.73;;;;;;;14.08;100.00;99671.88;6255337;23;20028;-96
2023/12/27 11:36:03;;;;;;;16.83;8.57;;;;;;;13.83;100.00;99670.78;6254903;23;20457;-94
2023/12/27 11:38:50;;;;;;;13.32;8.55;;;;;;;13.92;100.00;99676.78;6254235;23;20024;-94
2023/12/27 11:41:25;;;;;;;13.95;7.80;;;;;;;14.49;100.00;99750.16;6254062;23;20016;-96
2023/12/27 11:44:03;;;;;;;15.32;8.15;;;;;;;14.21;100.00;99698.31;6252869;23;20016;-95